Main page
METAR-TAF:

METAR-TAF

Airports :

Municipal Airport

Plymouth, New Hampshire, United States

latitude: 43-46-45N, longitude: 071-45-13W, elevation: 505 ft

Current weather observation

The report was made 15 minutes ago, at 22:55 UTC
Wind 16 mph from the West with gusts up to 29 mph
Temperature 34°F
Humidity 44%
Pressure 29.74 in. Hg
Visibility: 10 miles
Scattered clouds at a height of 4200 ft
Scattered clouds at a height of 4800 ft
Broken clouds at a height of 6000 ft

METAR: K1P1 152255Z AUTO 27014G25KT 10SM SCT042 SCT048 BKN060 01/M10 A2974 RMK AO2 T00091100

Time: 18:10 (23:10 UTC)


TAF: missing

Weather observations and forecasts of more than 4000 airports (METAR and TAF reports).

The available stations are represented by yellow and red dots on the map.

Hover mouse over dot to see the name of the station.

Then click to see weather observations and forecasts.

To change the map : click on the green buttons with a black cross to zoom in, on the green button with a dash to zoom out, or on the green arrows for adjacent maps.


METAR-TAF: